sensor_id;sensor_type;location;lat;lon;timestamp;temperature;humidity
53146;DHT22;39042;53.150;5.898;2023-07-24T00:00:19;16.70;99.90
53146;DHT22;39042;53.150;5.898;2023-07-24T00:02:45;16.80;99.90
53146;DHT22;39042;53.150;5.898;2023-07-24T00:05:11;16.70;99.90
53146;DHT22;39042;53.150;5.898;2023-07-24T00:07:37;16.70;99.90
53146;DHT22;39042;53.150;5.898;2023-07-24T00:10:03;16.70;99.90
53146;DHT22;39042;53.150;5.898;2023-07-24T00:12:29;16.70;99.90
53146;DHT22;39042;53.150;5.898;2023-07-24T00:14:54;16.60;99.90
53146;DHT22;39042;53.150;5.898;2023-07-24T00:17:20;16.60;99.90
53146;DHT22;39042;53.150;5.898;2023-07-24T00:19:46;16.60;99.90
53146;DHT22;39042;53.150;5.898;2023-07-24T00:22:12;16.70;99.90
53146;DHT22;39042;53.150;5.898;2023-07-24T00:24:37;16.60;99.90
53146;DHT22;39042;53.150;5.898;2023-07-24T00:27:03;16.60;99.90
53146;DHT22;39042;53.150;5.898;2023-07-24T00:29:29;16.60;99.90
53146;DHT22;39042;53.150;5.898;2023-07-24T00:31:55;16.50;99.90
53146;DHT22;39042;53.150;5.898;2023-07-24T00:34:20;16.40;99.90
53146;DHT22;39042;53.150;5.898;2023-07-24T00:36:46;16.50;99.90
53146;DHT22;39042;53.150;5.898;2023-07-24T00:39:13;16.50;99.90
53146;DHT22;39042;53.150;5.898;2023-07-24T00:41:40;16.50;99.90
53146;DHT22;39042;53.150;5.898;2023-07-24T00:44:05;16.50;99.90
53146;DHT22;39042;53.150;5.898;2023-07-24T00:46:31;16.50;99.90
53146;DHT22;39042;53.150;5.898;2023-07-24T00:48:58;16.50;99.90
53146;DHT22;39042;53.150;5.898;2023-07-24T00:51:26;16.50;99.90
53146;DHT22;39042;53.150;5.898;2023-07-24T00:53:57;16.40;99.90
53146;DHT22;39042;53.150;5.898;2023-07-24T00:56:23;16.40;99.90
53146;DHT22;39042;53.150;5.898;2023-07-24T00:58:49;16.40;99.90
53146;DHT22;39042;53.150;5.898;2023-07-24T01:01:16;16.30;99.90
53146;DHT22;39042;53.150;5.898;2023-07-24T01:03:43;16.30;99.90
53146;DHT22;39042;53.150;5.898;2023-07-24T01:06:09;16.30;99.90
53146;DHT22;39042;53.150;5.898;2023-07-24T01:08:36;16.30;99.90
53146;DHT22;39042;53.150;5.898;2023-07-24T01:11:03;16.30;99.90
53146;DHT22;39042;53.150;5.898;2023-07-24T01:13:33;16.20;99.90
53146;DHT22;39042;53.150;5.898;2023-07-24T01:16:09;16.20;99.90
53146;DHT22;39042;53.150;5.898;2023-07-24T01:18:35;16.20;99.90
53146;DHT22;39042;53.150;5.898;2023-07-24T01:21:02;16.20;99.90
53146;DHT22;39042;53.150;5.898;2023-07-24T01:26:05;16.20;99.90
53146;DHT22;39042;53.150;5.898;2023-07-24T01:28:32;16.20;99.90
53146;DHT22;39042;53.150;5.898;2023-07-24T01:30:58;16.20;99.90
53146;DHT22;39042;53.150;5.898;2023-07-24T01:33:23;16.20;99.90
53146;DHT22;39042;53.150;5.898;2023-07-24T01:35:57;16.20;99.90
53146;DHT22;39042;53.150;5.898;2023-07-24T01:38:26;16.20;99.90
53146;DHT22;39042;53.150;5.898;2023-07-24T01:40:53;16.20;99.90
53146;DHT22;39042;53.150;5.898;2023-07-24T01:43:19;16.30;99.90
53146;DHT22;39042;53.150;5.898;2023-07-24T01:45:45;16.30;99.90
53146;DHT22;39042;53.150;5.898;2023-07-24T01:48:10;16.40;99.90
53146;DHT22;39042;53.150;5.898;2023-07-24T01:50:36;16.40;99.90
53146;DHT22;39042;53.150;5.898;2023-07-24T01:53:02;16.50;99.90
53146;DHT22;39042;53.150;5.898;2023-07-24T01:55:28;16.50;99.90
53146;DHT22;39042;53.150;5.898;2023-07-24T01:57:53;16.50;99.90
53146;DHT22;39042;53.150;5.898;2023-07-24T02:00:19;16.60;99.90
53146;DHT22;39042;53.150;5.898;2023-07-24T02:02:45;16.60;99.90
53146;DHT22;39042;53.150;5.898;2023-07-24T02:05:10;16.60;99.90
53146;DHT22;39042;53.150;5.898;2023-07-24T02:07:36;16.60;99.90
53146;DHT22;39042;53.150;5.898;2023-07-24T02:10:02;16.70;99.90
53146;DHT22;39042;53.150;5.898;2023-07-24T02:12:28;16.70;99.90
53146;DHT22;39042;53.150;5.898;2023-07-24T02:14:54;16.70;99.90
53146;DHT22;39042;53.150;5.898;2023-07-24T02:17:20;16.70;99.90
53146;DHT22;39042;53.150;5.898;2023-07-24T02:19:46;16.70;99.90
53146;DHT22;39042;53.150;5.898;2023-07-24T02:22:12;16.70;99.90
53146;DHT22;39042;53.150;5.898;2023-07-24T02:24:38;16.70;99.90
53146;DHT22;39042;53.150;5.898;2023-07-24T02:27:04;16.80;99.90
53146;DHT22;39042;53.150;5.898;2023-07-24T02:29:33;16.80;99.90
53146;DHT22;39042;53.150;5.898;2023-07-24T02:31:59;16.80;99.90
53146;DHT22;39042;53.150;5.898;2023-07-24T02:34:25;16.80;99.90
53146;DHT22;39042;53.150;5.898;2023-07-24T02:36:52;16.80;99.90
53146;DHT22;39042;53.150;5.898;2023-07-24T02:39:19;16.80;99.90
53146;DHT22;39042;53.150;5.898;2023-07-24T02:41:44;16.90;99.90
53146;DHT22;39042;53.150;5.898;2023-07-24T02:44:11;16.90;99.90
53146;DHT22;39042;53.150;5.898;2023-07-24T02:46:36;16.90;99.90
53146;DHT22;39042;53.150;5.898;2023-07-24T02:49:02;16.90;99.90
53146;DHT22;39042;53.150;5.898;2023-07-24T02:51:29;16.90;99.90
53146;DHT22;39042;53.150;5.898;2023-07-24T02:53:54;16.90;99.90
53146;DHT22;39042;53.150;5.898;2023-07-24T02:56:21;16.90;99.90
53146;DHT22;39042;53.150;5.898;2023-07-24T02:58:46;16.90;99.90
53146;DHT22;39042;53.150;5.898;2023-07-24T03:01:13;16.90;99.90
53146;DHT22;39042;53.150;5.898;2023-07-24T03:03:40;16.90;99.90
53146;DHT22;39042;53.150;5.898;2023-07-24T03:06:06;17.00;99.90
53146;DHT22;39042;53.150;5.898;2023-07-24T03:08:32;16.90;99.90
53146;DHT22;39042;53.150;5.898;2023-07-24T03:10:58;17.00;99.90
53146;DHT22;39042;53.150;5.898;2023-07-24T03:13:26;17.00;99.90
53146;DHT22;39042;53.150;5.898;2023-07-24T03:15:52;17.00;99.90
53146;DHT22;39042;53.150;5.898;2023-07-24T03:18:18;17.00;99.90
53146;DHT22;39042;53.150;5.898;2023-07-24T03:20:44;17.00;99.90
53146;DHT22;39042;53.150;5.898;2023-07-24T03:23:10;17.00;99.90
53146;DHT22;39042;53.150;5.898;2023-07-24T03:25:35;17.10;99.90
53146;DHT22;39042;53.150;5.898;2023-07-24T03:28:01;17.00;99.90
53146;DHT22;39042;53.150;5.898;2023-07-24T03:30:28;17.00;99.90
53146;DHT22;39042;53.150;5.898;2023-07-24T03:32:53;17.10;99.90
53146;DHT22;39042;53.150;5.898;2023-07-24T03:35:19;17.10;99.90
53146;DHT22;39042;53.150;5.898;2023-07-24T03:37:45;17.10;99.90
53146;DHT22;39042;53.150;5.898;2023-07-24T03:40:11;17.10;99.90
53146;DHT22;39042;53.150;5.898;2023-07-24T03:42:37;17.10;99.90
53146;DHT22;39042;53.150;5.898;2023-07-24T03:45:03;17.10;99.90
53146;DHT22;39042;53.150;5.898;2023-07-24T03:47:29;17.10;99.90
53146;DHT22;39042;53.150;5.898;2023-07-24T03:49:55;17.10;99.90
53146;DHT22;39042;53.150;5.898;2023-07-24T03:52:21;17.10;99.90
53146;DHT22;39042;53.150;5.898;2023-07-24T03:54:47;17.10;99.90
53146;DHT22;39042;53.150;5.898;2023-07-24T03:57:12;17.20;99.90
53146;DHT22;39042;53.150;5.898;2023-07-24T03:59:38;17.20;99.90
53146;DHT22;39042;53.150;5.898;2023-07-24T04:02:04;17.20;99.90
53146;DHT22;39042;53.150;5.898;2023-07-24T04:04:30;17.20;99.90
53146;DHT22;39042;53.150;5.898;2023-07-24T04:06:55;17.20;99.90
53146;DHT22;39042;53.150;5.898;2023-07-24T04:09:21;17.20;99.90
53146;DHT22;39042;53.150;5.898;2023-07-24T04:11:47;17.20;99.90
53146;DHT22;39042;53.150;5.898;2023-07-24T04:14:12;17.20;99.90
53146;DHT22;39042;53.150;5.898;2023-07-24T04:16:38;17.20;99.90
53146;DHT22;39042;53.150;5.898;2023-07-24T04:19:04;17.20;99.90
53146;DHT22;39042;53.150;5.898;2023-07-24T04:21:30;17.20;99.90
53146;DHT22;39042;53.150;5.898;2023-07-24T04:23:56;17.20;99.90
53146;DHT22;39042;53.150;5.898;2023-07-24T04:26:22;17.20;99.90
53146;DHT22;39042;53.150;5.898;2023-07-24T04:28:48;17.20;99.90
53146;DHT22;39042;53.150;5.898;2023-07-24T04:31:13;17.20;99.90
53146;DHT22;39042;53.150;5.898;2023-07-24T04:33:39;17.20;99.90
53146;DHT22;39042;53.150;5.898;2023-07-24T04:36:05;17.30;99.90
53146;DHT22;39042;53.150;5.898;2023-07-24T04:38:31;17.20;99.90
53146;DHT22;39042;53.150;5.898;2023-07-24T04:40:56;17.30;99.90
53146;DHT22;39042;53.150;5.898;2023-07-24T04:43:22;17.30;99.90
53146;DHT22;39042;53.150;5.898;2023-07-24T04:45:48;17.30;99.90
53146;DHT22;39042;53.150;5.898;2023-07-24T04:48:14;17.30;99.90
53146;DHT22;39042;53.150;5.898;2023-07-24T04:50:39;17.30;99.90
53146;DHT22;39042;53.150;5.898;2023-07-24T04:53:05;17.30;99.90
53146;DHT22;39042;53.150;5.898;2023-07-24T04:55:31;17.30;99.90
53146;DHT22;39042;53.150;5.898;2023-07-24T04:57:56;17.40;99.90
53146;DHT22;39042;53.150;5.898;2023-07-24T05:00:22;17.40;99.90
53146;DHT22;39042;53.150;5.898;2023-07-24T05:02:48;17.40;99.90
53146;DHT22;39042;53.150;5.898;2023-07-24T05:05:13;17.40;99.90
53146;DHT22;39042;53.150;5.898;2023-07-24T05:07:39;17.40;99.90
53146;DHT22;39042;53.150;5.898;2023-07-24T05:10:05;17.50;99.90
53146;DHT22;39042;53.150;5.898;2023-07-24T05:12:31;17.40;99.90
53146;DHT22;39042;53.150;5.898;2023-07-24T05:14:57;17.50;99.90
53146;DHT22;39042;53.150;5.898;2023-07-24T05:17:22;17.50;99.90
53146;DHT22;39042;53.150;5.898;2023-07-24T05:19:48;17.50;99.90
53146;DHT22;39042;53.150;5.898;2023-07-24T05:22:14;17.50;99.90
53146;DHT22;39042;53.150;5.898;2023-07-24T05:24:39;17.50;99.90
53146;DHT22;39042;53.150;5.898;2023-07-24T05:27:05;17.50;99.90
53146;DHT22;39042;53.150;5.898;2023-07-24T05:29:31;17.50;99.90
53146;DHT22;39042;53.150;5.898;2023-07-24T05:31:57;17.50;99.90
53146;DHT22;39042;53.150;5.898;2023-07-24T05:34:24;17.50;99.90
53146;DHT22;39042;53.150;5.898;2023-07-24T05:36:50;17.50;99.90
53146;DHT22;39042;53.150;5.898;2023-07-24T05:39:16;17.50;99.90
53146;DHT22;39042;53.150;5.898;2023-07-24T05:41:41;17.50;99.90
53146;DHT22;39042;53.150;5.898;2023-07-24T05:44:07;17.50;99.90
53146;DHT22;39042;53.150;5.898;2023-07-24T05:46:33;17.60;99.90
53146;DHT22;39042;53.150;5.898;2023-07-24T05:48:58;17.60;99.90
53146;DHT22;39042;53.150;5.898;2023-07-24T05:51:27;17.70;99.90
53146;DHT22;39042;53.150;5.898;2023-07-24T05:53:52;17.70;99.90
53146;DHT22;39042;53.150;5.898;2023-07-24T05:56:18;17.80;99.90
53146;DHT22;39042;53.150;5.898;2023-07-24T05:58:44;17.80;99.90
53146;DHT22;39042;53.150;5.898;2023-07-24T06:01:09;17.90;99.90
53146;DHT22;39042;53.150;5.898;2023-07-24T06:03:35;17.90;99.90
53146;DHT22;39042;53.150;5.898;2023-07-24T06:06:01;18.00;99.90
53146;DHT22;39042;53.150;5.898;2023-07-24T06:08:27;18.00;99.90
53146;DHT22;39042;53.150;5.898;2023-07-24T06:10:53;18.10;99.90
53146;DHT22;39042;53.150;5.898;2023-07-24T06:13:19;18.20;99.90
53146;DHT22;39042;53.150;5.898;2023-07-24T06:15:46;18.20;99.90
53146;DHT22;39042;53.150;5.898;2023-07-24T06:18:12;18.20;99.90
53146;DHT22;39042;53.150;5.898;2023-07-24T06:20:38;18.30;99.90
53146;DHT22;39042;53.150;5.898;2023-07-24T06:23:04;18.40;99.90
53146;DHT22;39042;53.150;5.898;2023-07-24T06:25:30;18.40;99.90
53146;DHT22;39042;53.150;5.898;2023-07-24T06:27:56;18.60;99.90
53146;DHT22;39042;53.150;5.898;2023-07-24T06:30:22;18.60;99.90
53146;DHT22;39042;53.150;5.898;2023-07-24T06:32:48;18.70;99.90
53146;DHT22;39042;53.150;5.898;2023-07-24T06:35:13;18.80;99.90
53146;DHT22;39042;53.150;5.898;2023-07-24T06:37:39;18.90;99.90
53146;DHT22;39042;53.150;5.898;2023-07-24T06:40:08;19.00;99.90
53146;DHT22;39042;53.150;5.898;2023-07-24T06:42:34;19.10;99.90
53146;DHT22;39042;53.150;5.898;2023-07-24T06:44:59;19.20;99.90
53146;DHT22;39042;53.150;5.898;2023-07-24T06:47:25;19.40;99.90
53146;DHT22;39042;53.150;5.898;2023-07-24T06:49:51;19.40;99.90
53146;DHT22;39042;53.150;5.898;2023-07-24T06:52:17;19.50;99.90
53146;DHT22;39042;53.150;5.898;2023-07-24T06:54:43;19.60;99.90
53146;DHT22;39042;53.150;5.898;2023-07-24T06:57:08;19.60;99.90
53146;DHT22;39042;53.150;5.898;2023-07-24T06:59:34;19.70;99.90
53146;DHT22;39042;53.150;5.898;2023-07-24T07:02:00;19.70;99.90
53146;DHT22;39042;53.150;5.898;2023-07-24T07:04:26;19.80;99.90
53146;DHT22;39042;53.150;5.898;2023-07-24T07:06:51;19.90;99.90
53146;DHT22;39042;53.150;5.898;2023-07-24T07:09:17;19.90;99.90
53146;DHT22;39042;53.150;5.898;2023-07-24T07:11:43;19.90;99.90
53146;DHT22;39042;53.150;5.898;2023-07-24T07:14:09;19.90;99.90
53146;DHT22;39042;53.150;5.898;2023-07-24T07:16:35;19.90;99.90
53146;DHT22;39042;53.150;5.898;2023-07-24T07:19:00;19.90;99.90
53146;DHT22;39042;53.150;5.898;2023-07-24T07:21:26;19.80;99.90
53146;DHT22;39042;53.150;5.898;2023-07-24T07:23:52;19.80;99.90
53146;DHT22;39042;53.150;5.898;2023-07-24T07:26:18;19.70;99.90
53146;DHT22;39042;53.150;5.898;2023-07-24T07:28:43;19.70;99.90
53146;DHT22;39042;53.150;5.898;2023-07-24T07:31:10;19.70;99.90
53146;DHT22;39042;53.150;5.898;2023-07-24T07:33:36;19.80;99.90
53146;DHT22;39042;53.150;5.898;2023-07-24T07:36:02;19.80;99.90
53146;DHT22;39042;53.150;5.898;2023-07-24T07:38:29;20.00;99.90
53146;DHT22;39042;53.150;5.898;2023-07-24T07:40:55;20.10;99.90
53146;DHT22;39042;53.150;5.898;2023-07-24T07:43:21;20.20;99.90
53146;DHT22;39042;53.150;5.898;2023-07-24T07:45:47;20.20;99.90
53146;DHT22;39042;53.150;5.898;2023-07-24T07:48:12;20.20;99.90
53146;DHT22;39042;53.150;5.898;2023-07-24T07:50:38;20.20;99.90
53146;DHT22;39042;53.150;5.898;2023-07-24T07:53:04;20.20;99.90
53146;DHT22;39042;53.150;5.898;2023-07-24T07:55:30;20.20;99.90
53146;DHT22;39042;53.150;5.898;2023-07-24T07:57:55;20.20;99.90
53146;DHT22;39042;53.150;5.898;2023-07-24T08:00:21;20.20;99.90
53146;DHT22;39042;53.150;5.898;2023-07-24T08:02:47;20.30;99.90
53146;DHT22;39042;53.150;5.898;2023-07-24T08:05:13;20.40;99.90
53146;DHT22;39042;53.150;5.898;2023-07-24T08:07:39;20.50;99.90
53146;DHT22;39042;53.150;5.898;2023-07-24T08:10:05;20.50;99.90
53146;DHT22;39042;53.150;5.898;2023-07-24T08:12:31;20.60;99.90
53146;DHT22;39042;53.150;5.898;2023-07-24T08:14:57;20.80;99.90
53146;DHT22;39042;53.150;5.898;2023-07-24T08:17:23;21.00;99.90
53146;DHT22;39042;53.150;5.898;2023-07-24T08:19:49;21.20;99.90
53146;DHT22;39042;53.150;5.898;2023-07-24T08:22:14;21.40;99.90
53146;DHT22;39042;53.150;5.898;2023-07-24T08:24:40;21.60;99.90
53146;DHT22;39042;53.150;5.898;2023-07-24T08:27:06;21.60;99.90
53146;DHT22;39042;53.150;5.898;2023-07-24T08:29:32;21.60;99.90
53146;DHT22;39042;53.150;5.898;2023-07-24T08:31:58;21.60;99.90
53146;DHT22;39042;53.150;5.898;2023-07-24T08:34:24;21.70;99.90
53146;DHT22;39042;53.150;5.898;2023-07-24T08:36:50;21.70;99.90
53146;DHT22;39042;53.150;5.898;2023-07-24T08:39:16;21.80;99.90
53146;DHT22;39042;53.150;5.898;2023-07-24T08:41:42;21.80;99.90
53146;DHT22;39042;53.150;5.898;2023-07-24T08:44:08;21.90;99.90
53146;DHT22;39042;53.150;5.898;2023-07-24T08:46:37;21.90;99.90
53146;DHT22;39042;53.150;5.898;2023-07-24T08:49:04;21.90;99.90
53146;DHT22;39042;53.150;5.898;2023-07-24T08:51:30;21.90;99.90
53146;DHT22;39042;53.150;5.898;2023-07-24T08:53:57;21.80;99.90
53146;DHT22;39042;53.150;5.898;2023-07-24T08:56:22;21.80;99.90
53146;DHT22;39042;53.150;5.898;2023-07-24T08:58:48;21.60;99.90
53146;DHT22;39042;53.150;5.898;2023-07-24T09:01:14;21.40;99.90
53146;DHT22;39042;53.150;5.898;2023-07-24T09:03:40;21.30;99.90
53146;DHT22;39042;53.150;5.898;2023-07-24T09:06:06;21.00;99.90
53146;DHT22;39042;53.150;5.898;2023-07-24T09:08:38;20.80;99.90
53146;DHT22;39042;53.150;5.898;2023-07-24T09:11:05;20.60;99.90
53146;DHT22;39042;53.150;5.898;2023-07-24T09:13:31;20.50;99.90
53146;DHT22;39042;53.150;5.898;2023-07-24T09:15:57;20.40;99.90
53146;DHT22;39042;53.150;5.898;2023-07-24T09:18:24;20.30;99.90
53146;DHT22;39042;53.150;5.898;2023-07-24T09:20:50;20.20;99.90
53146;DHT22;39042;53.150;5.898;2023-07-24T09:23:16;20.10;99.90
53146;DHT22;39042;53.150;5.898;2023-07-24T09:25:50;20.00;99.90
53146;DHT22;39042;53.150;5.898;2023-07-24T09:28:16;19.90;99.90
53146;DHT22;39042;53.150;5.898;2023-07-24T09:30:51;19.70;99.90
53146;DHT22;39042;53.150;5.898;2023-07-24T09:33:17;19.50;99.90
53146;DHT22;39042;53.150;5.898;2023-07-24T09:35:43;19.30;99.90
53146;DHT22;39042;53.150;5.898;2023-07-24T09:38:09;19.20;99.90
53146;DHT22;39042;53.150;5.898;2023-07-24T09:40:39;19.10;99.90
53146;DHT22;39042;53.150;5.898;2023-07-24T09:45:41;19.00;99.90
53146;DHT22;39042;53.150;5.898;2023-07-24T09:48:07;19.10;99.90
53146;DHT22;39042;53.150;5.898;2023-07-24T09:50:37;19.10;99.90
53146;DHT22;39042;53.150;5.898;2023-07-24T09:53:03;19.20;99.90
53146;DHT22;39042;53.150;5.898;2023-07-24T09:55:34;19.30;99.90
53146;DHT22;39042;53.150;5.898;2023-07-24T09:58:00;19.40;99.90
53146;DHT22;39042;53.150;5.898;2023-07-24T10:00:27;19.60;99.90
53146;DHT22;39042;53.150;5.898;2023-07-24T10:02:52;19.70;99.90
53146;DHT22;39042;53.150;5.898;2023-07-24T10:05:18;19.70;99.90
53146;DHT22;39042;53.150;5.898;2023-07-24T10:07:44;19.70;99.90
53146;DHT22;39042;53.150;5.898;2023-07-24T10:10:11;19.80;99.90
53146;DHT22;39042;53.150;5.898;2023-07-24T10:12:37;19.80;99.90
53146;DHT22;39042;53.150;5.898;2023-07-24T10:15:03;19.70;99.90
53146;DHT22;39042;53.150;5.898;2023-07-24T10:20:03;19.60;99.90
53146;DHT22;39042;53.150;5.898;2023-07-24T10:22:29;19.70;99.90
53146;DHT22;39042;53.150;5.898;2023-07-24T10:24:55;19.90;99.90
53146;DHT22;39042;53.150;5.898;2023-07-24T10:27:24;20.10;99.90
53146;DHT22;39042;53.150;5.898;2023-07-24T10:32:25;20.30;99.90
53146;DHT22;39042;53.150;5.898;2023-07-24T10:35:00;20.30;99.90
53146;DHT22;39042;53.150;5.898;2023-07-24T10:37:32;20.40;99.90
53146;DHT22;39042;53.150;5.898;2023-07-24T10:39:58;20.50;99.90
53146;DHT22;39042;53.150;5.898;2023-07-24T10:42:24;20.50;99.90
53146;DHT22;39042;53.150;5.898;2023-07-24T10:44:49;20.60;99.90
53146;DHT22;39042;53.150;5.898;2023-07-24T10:47:15;20.70;99.90
53146;DHT22;39042;53.150;5.898;2023-07-24T10:49:49;20.70;99.90
53146;DHT22;39042;53.150;5.898;2023-07-24T10:52:14;20.70;99.90
53146;DHT22;39042;53.150;5.898;2023-07-24T10:54:40;21.00;99.90
53146;DHT22;39042;53.150;5.898;2023-07-24T10:57:06;21.00;99.90
53146;DHT22;39042;53.150;5.898;2023-07-24T10:59:35;21.10;99.90
53146;DHT22;39042;53.150;5.898;2023-07-24T11:02:01;21.10;99.90
53146;DHT22;39042;53.150;5.898;2023-07-24T11:04:29;21.10;99.90
53146;DHT22;39042;53.150;5.898;2023-07-24T11:06:55;21.10;99.90
53146;DHT22;39042;53.150;5.898;2023-07-24T11:09:23;21.10;99.90
53146;DHT22;39042;53.150;5.898;2023-07-24T11:11:59;21.20;99.90
53146;DHT22;39042;53.150;5.898;2023-07-24T11:14:24;21.20;99.90
53146;DHT22;39042;53.150;5.898;2023-07-24T11:16:50;21.40;99.90
53146;DHT22;39042;53.150;5.898;2023-07-24T11:19:24;21.50;99.90
53146;DHT22;39042;53.150;5.898;2023-07-24T11:21:49;21.60;99.90
53146;DHT22;39042;53.150;5.898;2023-07-24T11:24:26;21.60;99.90
53146;DHT22;39042;53.150;5.898;2023-07-24T11:26:52;21.60;99.90
53146;DHT22;39042;53.150;5.898;2023-07-24T11:29:18;21.50;99.90
53146;DHT22;39042;53.150;5.898;2023-07-24T11:31:46;21.60;99.90
53146;DHT22;39042;53.150;5.898;2023-07-24T11:34:18;21.60;99.90
53146;DHT22;39042;53.150;5.898;2023-07-24T11:36:46;21.80;99.90
53146;DHT22;39042;53.150;5.898;2023-07-24T11:39:12;21.80;99.90
53146;DHT22;39042;53.150;5.898;2023-07-24T11:41:38;21.70;99.90
53146;DHT22;39042;53.150;5.898;2023-07-24T11:44:04;21.70;99.90
53146;DHT22;39042;53.150;5.898;2023-07-24T11:46:29;21.50;99.90
53146;DHT22;39042;53.150;5.898;2023-07-24T11:48:57;21.40;99.90
53146;DHT22;39042;53.150;5.898;2023-07-24T11:51:23;21.30;99.90
53146;DHT22;39042;53.150;5.898;2023-07-24T11:53:51;21.30;99.90
53146;DHT22;39042;53.150;5.898;2023-07-24T11:56:17;21.30;99.90
53146;DHT22;39042;53.150;5.898;2023-07-24T11:58:44;21.30;99.90
53146;DHT22;39042;53.150;5.898;2023-07-24T12:01:12;21.10;99.90
53146;DHT22;39042;53.150;5.898;2023-07-24T12:03:37;21.10;99.90
53146;DHT22;39042;53.150;5.898;2023-07-24T12:06:03;21.30;99.90
53146;DHT22;39042;53.150;5.898;2023-07-24T12:08:33;21.40;99.90
53146;DHT22;39042;53.150;5.898;2023-07-24T12:10:59;21.50;99.90
53146;DHT22;39042;53.150;5.898;2023-07-24T12:13:25;21.70;99.90
53146;DHT22;39042;53.150;5.898;2023-07-24T12:15:50;21.70;99.90
53146;DHT22;39042;53.150;5.898;2023-07-24T12:18:16;21.80;99.90
53146;DHT22;39042;53.150;5.898;2023-07-24T12:20:42;21.90;99.90
53146;DHT22;39042;53.150;5.898;2023-07-24T12:23:08;21.90;99.90
53146;DHT22;39042;53.150;5.898;2023-07-24T12:25:33;22.10;99.90
53146;DHT22;39042;53.150;5.898;2023-07-24T12:27:59;22.10;99.90
53146;DHT22;39042;53.150;5.898;2023-07-24T12:30:25;22.20;99.90
53146;DHT22;39042;53.150;5.898;2023-07-24T12:32:51;22.20;99.90
53146;DHT22;39042;53.150;5.898;2023-07-24T12:35:16;22.10;99.90
53146;DHT22;39042;53.150;5.898;2023-07-24T12:37:43;21.80;99.90
53146;DHT22;39042;53.150;5.898;2023-07-24T12:40:09;21.70;99.90
53146;DHT22;39042;53.150;5.898;2023-07-24T12:42:35;21.60;99.90
53146;DHT22;39042;53.150;5.898;2023-07-24T12:45:01;21.30;99.90
53146;DHT22;39042;53.150;5.898;2023-07-24T12:47:33;21.30;99.90
53146;DHT22;39042;53.150;5.898;2023-07-24T12:49:59;21.20;99.90
53146;DHT22;39042;53.150;5.898;2023-07-24T12:52:26;21.20;99.90
53146;DHT22;39042;53.150;5.898;2023-07-24T12:54:52;21.00;99.90
53146;DHT22;39042;53.150;5.898;2023-07-24T12:57:17;20.80;99.90
53146;DHT22;39042;53.150;5.898;2023-07-24T12:59:43;20.70;99.90
53146;DHT22;39042;53.150;5.898;2023-07-24T13:02:09;20.70;99.90
53146;DHT22;39042;53.150;5.898;2023-07-24T13:04:35;20.50;99.90
53146;DHT22;39042;53.150;5.898;2023-07-24T13:07:00;20.30;99.90
53146;DHT22;39042;53.150;5.898;2023-07-24T13:09:27;20.10;99.90
53146;DHT22;39042;53.150;5.898;2023-07-24T13:11:53;20.10;99.90
53146;DHT22;39042;53.150;5.898;2023-07-24T13:14:20;20.10;99.90
53146;DHT22;39042;53.150;5.898;2023-07-24T13:16:46;20.00;99.90
53146;DHT22;39042;53.150;5.898;2023-07-24T13:19:11;20.00;99.90
53146;DHT22;39042;53.150;5.898;2023-07-24T13:21:37;19.90;99.90
53146;DHT22;39042;53.150;5.898;2023-07-24T13:24:04;19.80;99.90
53146;DHT22;39042;53.150;5.898;2023-07-24T13:26:30;19.80;99.90
53146;DHT22;39042;53.150;5.898;2023-07-24T13:28:56;19.70;99.90
53146;DHT22;39042;53.150;5.898;2023-07-24T13:31:22;19.60;99.90
53146;DHT22;39042;53.150;5.898;2023-07-24T13:33:48;19.40;99.90
53146;DHT22;39042;53.150;5.898;2023-07-24T13:36:14;19.30;99.90
53146;DHT22;39042;53.150;5.898;2023-07-24T13:38:40;19.30;99.90
53146;DHT22;39042;53.150;5.898;2023-07-24T13:41:06;19.20;99.90
53146;DHT22;39042;53.150;5.898;2023-07-24T13:43:32;19.00;99.90
53146;DHT22;39042;53.150;5.898;2023-07-24T13:45:58;18.90;99.90
53146;DHT22;39042;53.150;5.898;2023-07-24T13:48:24;18.80;99.90
53146;DHT22;39042;53.150;5.898;2023-07-24T13:50:50;18.70;99.90
53146;DHT22;39042;53.150;5.898;2023-07-24T13:53:16;18.50;99.90
53146;DHT22;39042;53.150;5.898;2023-07-24T13:55:42;18.40;99.90
53146;DHT22;39042;53.150;5.898;2023-07-24T13:58:07;18.30;99.90
53146;DHT22;39042;53.150;5.898;2023-07-24T14:00:33;18.20;99.90
53146;DHT22;39042;53.150;5.898;2023-07-24T14:02:59;18.10;99.90
53146;DHT22;39042;53.150;5.898;2023-07-24T14:05:25;18.00;99.90
53146;DHT22;39042;53.150;5.898;2023-07-24T14:07:50;17.90;99.90
53146;DHT22;39042;53.150;5.898;2023-07-24T14:10:19;17.80;99.90
53146;DHT22;39042;53.150;5.898;2023-07-24T14:12:45;17.70;99.90
53146;DHT22;39042;53.150;5.898;2023-07-24T14:15:31;17.60;99.90
53146;DHT22;39042;53.150;5.898;2023-07-24T14:17:56;17.60;99.90
53146;DHT22;39042;53.150;5.898;2023-07-24T14:20:22;17.50;99.90
53146;DHT22;39042;53.150;5.898;2023-07-24T14:23:03;17.50;99.90
53146;DHT22;39042;53.150;5.898;2023-07-24T15:01:48;17.90;99.90
53146;DHT22;39042;53.150;5.898;2023-07-24T15:18:39;17.10;99.90
53146;DHT22;39042;53.150;5.898;2023-07-24T15:36:03;17.20;99.90
53146;DHT22;39042;53.150;5.898;2023-07-24T15:39:22;17.20;99.90
53146;DHT22;39042;53.150;5.898;2023-07-24T15:53:32;17.10;99.90
53146;DHT22;39042;53.150;5.898;2023-07-24T15:56:31;17.10;99.90
53146;DHT22;39042;53.150;5.898;2023-07-24T16:17:30;17.50;99.90
53146;DHT22;39042;53.150;5.898;2023-07-24T16:24:12;17.50;99.90
53146;DHT22;39042;53.150;5.898;2023-07-24T16:27:29;17.60;99.90
53146;DHT22;39042;53.150;5.898;2023-07-24T16:30:44;17.60;99.90
53146;DHT22;39042;53.150;5.898;2023-07-24T16:34:06;17.60;99.90
53146;DHT22;39042;53.150;5.898;2023-07-24T16:37:15;17.60;99.90
53146;DHT22;39042;53.150;5.898;2023-07-24T16:44:00;17.60;99.90
53146;DHT22;39042;53.150;5.898;2023-07-24T16:47:14;17.60;99.90
53146;DHT22;39042;53.150;5.898;2023-07-24T16:55:53;17.60;99.90
53146;DHT22;39042;53.150;5.898;2023-07-24T16:58:19;17.60;99.90
53146;DHT22;39042;53.150;5.898;2023-07-24T17:00:48;17.60;99.90
53146;DHT22;39042;53.150;5.898;2023-07-24T17:03:13;17.60;99.90
53146;DHT22;39042;53.150;5.898;2023-07-24T17:05:42;17.50;99.90
53146;DHT22;39042;53.150;5.898;2023-07-24T17:08:10;17.50;99.90
53146;DHT22;39042;53.150;5.898;2023-07-24T17:10:43;17.50;99.90
53146;DHT22;39042;53.150;5.898;2023-07-24T17:13:11;17.50;99.90
53146;DHT22;39042;53.150;5.898;2023-07-24T17:15:37;17.40;99.90
53146;DHT22;39042;53.150;5.898;2023-07-24T17:18:08;17.40;99.90
53146;DHT22;39042;53.150;5.898;2023-07-24T17:20:34;17.40;99.90
53146;DHT22;39042;53.150;5.898;2023-07-24T17:23:00;17.30;99.90
53146;DHT22;39042;53.150;5.898;2023-07-24T17:25:28;17.20;99.90
53146;DHT22;39042;53.150;5.898;2023-07-24T17:27:54;17.20;99.90
53146;DHT22;39042;53.150;5.898;2023-07-24T17:30:20;17.10;99.90